createdAt,value
2019-02-14T00:00:26.768Z,103282.31
2019-02-14T00:02:55.759Z,103288.05
2019-02-14T00:05:22.915Z,103284.50
2019-02-14T00:07:49.991Z,103293.19
2019-02-14T00:10:17.643Z,103297.27
2019-02-14T00:12:46.494Z,103302.55
2019-02-14T00:15:13.560Z,103305.51
2019-02-14T00:17:40.959Z,103301.93
2019-02-14T00:20:08.562Z,103314.13
2019-02-14T00:22:36.139Z,103316.88
2019-02-14T00:25:04.430Z,103309.36
2019-02-14T00:27:31.569Z,103301.38
2019-02-14T00:29:58.635Z,103314.06
2019-02-14T00:32:26.120Z,103306.23
2019-02-14T00:34:53.228Z,103306.62
2019-02-14T00:37:20.287Z,103310.25
2019-02-14T00:39:47.806Z,103323.53
2019-02-14T00:42:14.866Z,103319.54
2019-02-14T00:44:41.928Z,103313.15
2019-02-14T00:47:11.919Z,103307.92
2019-02-14T00:49:38.966Z,103309.93
2019-02-14T00:52:06.353Z,103302.70
2019-02-14T00:54:33.747Z,103294.02
2019-02-14T00:57:00.816Z,103288.84
2019-02-14T00:59:27.880Z,103301.25
2019-02-14T01:01:56.173Z,103292.30
2019-02-14T01:04:23.359Z,103286.83
2019-02-14T01:06:50.943Z,103288.13
2019-02-14T01:09:19.766Z,103295.82
2019-02-14T01:11:47.090Z,103280.99
2019-02-14T01:14:15.132Z,103279.55
2019-02-14T01:16:42.549Z,103284.70
2019-02-14T01:19:10.588Z,103290.88
2019-02-14T01:21:37.619Z,103281.91
2019-02-14T01:24:04.727Z,103281.73
2019-02-14T01:26:31.780Z,103282.39
2019-02-14T01:28:58.862Z,103288.83
2019-02-14T01:31:25.906Z,103285.02
2019-02-14T01:33:52.970Z,103277.93
2019-02-14T01:36:20.123Z,103283.80
2019-02-14T01:38:47.181Z,103274.64
2019-02-14T01:41:14.673Z,103276.05
2019-02-14T01:43:41.734Z,103277.30
2019-02-14T01:46:08.769Z,103288.78
2019-02-14T01:48:37.637Z,103295.91
2019-02-14T01:51:05.822Z,103297.55
2019-02-14T01:53:32.959Z,103300.77
2019-02-14T01:56:00.141Z,103302.73
2019-02-14T01:58:28.301Z,103287.52
2019-02-14T02:00:55.339Z,103290.17
2019-02-14T02:03:22.593Z,103291.94
2019-02-14T02:05:50.985Z,103303.98
2019-02-14T02:08:19.412Z,103300.33
2019-02-14T02:10:47.120Z,103302.32
2019-02-14T02:13:14.184Z,103292.45
2019-02-14T02:15:41.267Z,103292.21
2019-02-14T02:18:08.452Z,103299.64
2019-02-14T02:20:36.183Z,103300.97
2019-02-14T02:23:03.339Z,103306.73
2019-02-14T02:25:30.515Z,103301.72
2019-02-14T02:27:57.938Z,103309.76
2019-02-14T02:30:25.395Z,103313.33
2019-02-14T02:32:53.161Z,103321.72
2019-02-14T02:35:20.821Z,103326.28
2019-02-14T02:37:47.978Z,103324.92
2019-02-14T02:40:15.395Z,103318.95
2019-02-14T02:42:42.454Z,103321.23
2019-02-14T02:45:11.369Z,103313.48
2019-02-14T02:47:38.462Z,103315.73
2019-02-14T02:50:07.850Z,103307.81
2019-02-14T02:52:36.925Z,103306.49
2019-02-14T02:55:04.411Z,103307.23
2019-02-14T02:57:32.235Z,103313.31
2019-02-14T02:59:59.329Z,103315.59
2019-02-14T03:02:26.633Z,103319.36
2019-02-14T03:04:54.134Z,103314.42
2019-02-14T03:07:21.545Z,103315.36
2019-02-14T03:09:48.575Z,103318.34
2019-02-14T03:12:17.693Z,103325.88
2019-02-14T03:14:44.717Z,103321.19
2019-02-14T03:17:12.162Z,103324.33
2019-02-14T03:19:39.193Z,103317.06
2019-02-14T03:22:06.269Z,103314.28
2019-02-14T03:24:33.317Z,103320.12
2019-02-14T03:27:00.373Z,103316.68
2019-02-14T03:29:27.393Z,103315.44
2019-02-14T03:31:54.511Z,103327.84
2019-02-14T03:34:21.537Z,103331.66
2019-02-14T03:36:50.425Z,103332.25
2019-02-14T03:39:17.444Z,103335.05
2019-02-14T03:41:45.564Z,103350.24
2019-02-14T03:44:12.601Z,103348.69
2019-02-14T03:46:39.842Z,103347.05
2019-02-14T03:49:07.936Z,103339.13
2019-02-14T03:51:35.024Z,103328.06
2019-02-14T03:54:02.434Z,103329.04
2019-02-14T03:56:29.533Z,103332.95
2019-02-14T03:58:56.590Z,103329.56
2019-02-14T04:01:23.658Z,103327.41
2019-02-14T04:03:50.738Z,103326.66
2019-02-14T04:06:17.825Z,103339.97
2019-02-14T04:08:44.885Z,103345.27
2019-02-14T04:11:12.057Z,103350.90
2019-02-14T04:13:39.671Z,103336.08
2019-02-14T04:16:06.750Z,103340.27
2019-02-14T04:18:33.874Z,103348.66
2019-02-14T04:21:01.264Z,103338.34
2019-02-14T04:23:28.761Z,103335.20
2019-02-14T04:25:56.214Z,103343.14
2019-02-14T04:28:23.369Z,103355.84
2019-02-14T04:30:50.432Z,103352.48
2019-02-14T04:33:18.233Z,103345.37
2019-02-14T04:35:46.201Z,103350.08
2019-02-14T04:38:13.967Z,103351.66
2019-02-14T04:40:42.404Z,103350.90
2019-02-14T04:43:10.111Z,103358.14
2019-02-14T04:45:37.769Z,103353.57
2019-02-14T04:48:05.946Z,103348.09
2019-02-14T04:50:33.603Z,103349.19
2019-02-14T04:53:01.683Z,103349.84
2019-02-14T04:55:30.978Z,103345.45
2019-02-14T04:57:58.361Z,103343.28
2019-02-14T05:00:25.991Z,103351.81
2019-02-14T05:02:53.474Z,103360.47
2019-02-14T05:05:21.109Z,103367.65
2019-02-14T05:07:49.183Z,103367.29
2019-02-14T05:10:16.842Z,103368.91
2019-02-14T05:12:44.915Z,103369.31
2019-02-14T05:15:12.678Z,103358.33
2019-02-14T05:17:40.031Z,103349.73
2019-02-14T05:20:07.987Z,103352.80
2019-02-14T05:22:36.586Z,103356.77
2019-02-14T05:25:04.340Z,103361.27
2019-02-14T05:27:31.537Z,103366.73
2019-02-14T05:29:58.621Z,103370.05
2019-02-14T05:32:25.743Z,103375.40
2019-02-14T05:34:52.923Z,103374.20
2019-02-14T05:37:21.061Z,103379.98
2019-02-14T05:39:48.171Z,103364.16
2019-02-14T05:42:15.341Z,103356.11
2019-02-14T05:44:42.796Z,103356.20
2019-02-14T05:47:09.969Z,103363.86
2019-02-14T05:49:37.301Z,103370.38
2019-02-14T05:52:04.480Z,103379.56
2019-02-14T05:54:32.622Z,103387.78
2019-02-14T05:56:59.802Z,103380.84
2019-02-14T05:59:27.247Z,103372.59
2019-02-14T06:01:56.100Z,103371.98
2019-02-14T06:04:25.182Z,103387.12
2019-02-14T06:06:52.307Z,103383.02
2019-02-14T06:09:19.389Z,103382.46
2019-02-14T06:11:46.576Z,103386.19
2019-02-14T06:14:13.997Z,103387.73
2019-02-14T06:16:42.481Z,103403.53
2019-02-14T06:19:10.855Z,103395.61
2019-02-14T06:21:37.928Z,103411.60
2019-02-14T06:24:05.131Z,103409.69
2019-02-14T06:26:32.560Z,103404.67
2019-02-14T06:28:59.912Z,103406.83
2019-02-14T06:31:26.991Z,103415.91
2019-02-14T06:33:54.879Z,103416.55
2019-02-14T06:36:22.544Z,103423.06
2019-02-14T06:38:50.504Z,103432.30
2019-02-14T06:41:18.587Z,103430.59
2019-02-14T06:43:47.788Z,103429.19
2019-02-14T06:46:15.541Z,103430.75
2019-02-14T06:48:44.074Z,103425.29
2019-02-14T06:51:11.609Z,103428.20
2019-02-14T06:53:39.345Z,103432.33
2019-02-14T06:56:06.951Z,103433.70
2019-02-14T06:58:34.035Z,103429.75
2019-02-14T07:01:01.234Z,103425.78
2019-02-14T07:03:28.474Z,103426.92
2019-02-14T07:05:56.046Z,103422.83
2019-02-14T07:08:23.433Z,103421.53
2019-02-14T07:10:51.079Z,103429.09
2019-02-14T07:13:18.142Z,103429.54
2019-02-14T07:15:45.539Z,103435.56
2019-02-14T07:18:12.727Z,103432.35
2019-02-14T07:20:40.189Z,103433.31
2019-02-14T07:23:07.262Z,103426.44
2019-02-14T07:25:34.484Z,103426.93
2019-02-14T07:28:01.852Z,103427.78
2019-02-14T07:30:29.974Z,103426.01
2019-02-14T07:32:58.193Z,103424.44
2019-02-14T07:35:25.371Z,103419.11
2019-02-14T07:37:52.432Z,103433.72
2019-02-14T07:40:19.737Z,103428.23
2019-02-14T07:42:47.202Z,103434.02
2019-02-14T07:45:14.304Z,103433.25
2019-02-14T07:47:41.390Z,103433.89
2019-02-14T07:50:09.539Z,103436.78
2019-02-14T07:52:36.722Z,103452.27
2019-02-14T07:55:05.128Z,103448.22
2019-02-14T07:57:33.444Z,103438.06
2019-02-14T08:00:00.566Z,103432.59
2019-02-14T08:02:27.599Z,103433.13
2019-02-14T08:04:55.017Z,103428.42
2019-02-14T08:07:22.377Z,103418.92
2019-02-14T08:09:49.470Z,103417.64
2019-02-14T08:12:17.632Z,103414.88
2019-02-14T08:14:44.949Z,103425.47
2019-02-14T08:17:12.182Z,103421.56
2019-02-14T08:19:39.275Z,103429.51
2019-02-14T08:22:06.691Z,103424.30
2019-02-14T08:24:34.635Z,103427.31
2019-02-14T08:27:03.015Z,103424.69
2019-02-14T08:29:30.405Z,103432.19
2019-02-14T08:31:57.510Z,103435.70
2019-02-14T08:34:25.894Z,103432.94
2019-02-14T08:36:54.230Z,103429.09
2019-02-14T08:39:23.674Z,103428.47
2019-02-14T08:41:55.333Z,103430.04
2019-02-14T08:44:22.766Z,103440.42
2019-02-14T08:46:50.556Z,103440.58
2019-02-14T08:49:18.931Z,103440.92
2019-02-14T08:51:50.679Z,103438.15
2019-02-14T08:54:18.176Z,103436.81
2019-02-14T08:56:46.624Z,103438.38
2019-02-14T08:59:14.386Z,103426.28
2019-02-14T09:01:42.045Z,103430.99
2019-02-14T09:04:13.432Z,103423.44
2019-02-14T09:06:41.877Z,103423.17
2019-02-14T09:09:08.962Z,103424.83
2019-02-14T09:11:36.903Z,103434.64
2019-02-14T09:14:05.720Z,103419.24
2019-02-14T09:16:33.139Z,103416.50
2019-02-14T09:19:00.598Z,103421.28
2019-02-14T09:21:28.473Z,103414.70
2019-02-14T09:23:56.227Z,103412.95
2019-02-14T09:26:24.194Z,103415.86
2019-02-14T09:28:52.774Z,103410.45
2019-02-14T09:31:20.647Z,103408.01
2019-02-14T09:33:48.352Z,103411.02
2019-02-14T09:36:19.713Z,103401.19
2019-02-14T09:38:47.110Z,103397.08
2019-02-14T09:41:14.217Z,103409.16
2019-02-14T09:43:42.708Z,103408.16
2019-02-14T09:46:10.511Z,103414.46
2019-02-14T09:48:38.031Z,103411.39
2019-02-14T09:51:06.156Z,103406.69
2019-02-14T09:53:36.462Z,103407.03
2019-02-14T09:56:03.978Z,103420.19
2019-02-14T09:58:31.784Z,103408.91
2019-02-14T10:00:59.550Z,103409.12
2019-02-14T10:03:27.767Z,103421.97
2019-02-14T10:05:54.824Z,103414.55
2019-02-14T10:08:24.994Z,103410.52
2019-02-14T10:10:52.208Z,103411.12
2019-02-14T10:13:20.212Z,103405.33
2019-02-14T10:15:49.207Z,103401.77
2019-02-14T10:18:17.994Z,103393.81
2019-02-14T10:20:45.964Z,103396.49
2019-02-14T10:23:13.163Z,103391.03
2019-02-14T10:25:41.335Z,103386.68
2019-02-14T10:28:09.045Z,103399.77
2019-02-14T10:30:36.235Z,103390.99
2019-02-14T10:33:03.678Z,103401.27
2019-02-14T10:35:30.890Z,103395.02
2019-02-14T10:37:59.235Z,103394.11
2019-02-14T10:40:26.830Z,103392.41
2019-02-14T10:42:54.402Z,103396.67
2019-02-14T10:45:21.603Z,103399.10
2019-02-14T10:47:49.423Z,103410.77
2019-02-14T10:50:17.080Z,103412.84
2019-02-14T10:52:44.770Z,103398.00
2019-02-14T10:55:13.015Z,103391.92
2019-02-14T10:57:40.199Z,103390.34
2019-02-14T11:00:16.392Z,103388.74
2019-02-14T11:02:44.295Z,103380.56
2019-02-14T11:05:13.827Z,103389.28
2019-02-14T11:07:41.254Z,103391.20
2019-02-14T11:10:09.838Z,103389.27
2019-02-14T11:12:37.299Z,103393.33
2019-02-14T11:15:09.046Z,103381.78
2019-02-14T11:17:36.096Z,103385.58
2019-02-14T11:20:03.656Z,103381.66
2019-02-14T11:22:31.792Z,103384.89
2019-02-14T11:24:59.707Z,103375.27
2019-02-14T11:27:27.206Z,103385.27
2019-02-14T11:29:55.947Z,103381.36
2019-02-14T11:32:23.408Z,103378.91
2019-02-14T11:34:52.912Z,103369.16
2019-02-14T11:37:20.672Z,103370.23
2019-02-14T11:39:48.575Z,103373.48
2019-02-14T11:42:18.047Z,103368.76
2019-02-14T11:44:45.581Z,103364.20
2019-02-14T11:47:13.371Z,103372.45
2019-02-14T11:49:41.235Z,103362.42
2019-02-14T11:52:09.101Z,103368.76
2019-02-14T11:54:36.168Z,103381.64
2019-02-14T11:57:07.655Z,103366.08
2019-02-14T11:59:34.718Z,103373.28
2019-02-14T12:02:02.611Z,103371.12
2019-02-14T12:04:29.684Z,103363.83
2019-02-14T12:06:57.121Z,103366.38
2019-02-14T12:09:24.182Z,103371.86
2019-02-14T12:11:51.931Z,103365.02
2019-02-14T12:14:19.389Z,103366.88
2019-02-14T12:16:47.564Z,103365.55
2019-02-14T12:19:14.960Z,103350.71
2019-02-14T12:21:42.673Z,103354.64
2019-02-14T12:24:10.337Z,103345.00
2019-02-14T12:26:38.411Z,103347.31
2019-02-14T12:29:05.809Z,103341.64
2019-02-14T12:31:32.904Z,103341.64
2019-02-14T12:34:00.000Z,103343.52
2019-02-14T12:36:27.530Z,103344.45
2019-02-14T12:38:55.322Z,103343.27
2019-02-14T12:41:23.052Z,103347.07
2019-02-14T12:43:51.145Z,103323.06
2019-02-14T12:46:20.315Z,103339.73
2019-02-14T12:48:47.371Z,103339.73
2019-02-14T12:51:14.455Z,103343.60
2019-02-14T12:53:41.514Z,103342.09
2019-02-14T12:56:08.675Z,103329.52
2019-02-14T12:58:36.839Z,103328.52
2019-02-14T13:01:05.650Z,103328.73
2019-02-14T13:03:33.831Z,103329.81
2019-02-14T13:06:02.241Z,103329.81
2019-02-14T13:08:29.411Z,103319.80
2019-02-14T13:10:56.503Z,103318.59
2019-02-14T13:13:24.946Z,103323.28
2019-02-14T13:15:53.829Z,103323.59
2019-02-14T13:18:21.940Z,103323.55
2019-02-14T13:20:52.865Z,103323.55
2019-02-14T13:23:20.214Z,103312.86
2019-02-14T13:25:47.252Z,103315.55
2019-02-14T13:28:16.747Z,103320.23
2019-02-14T13:30:44.160Z,103317.00
2019-02-14T13:33:11.620Z,103317.00
2019-02-14T13:35:38.706Z,103324.15
2019-02-14T13:38:05.770Z,103305.11
2019-02-14T13:40:33.117Z,103308.57
2019-02-14T13:43:01.058Z,103306.52
2019-02-14T13:45:29.576Z,103298.91
2019-02-14T13:47:56.631Z,103307.45
2019-02-14T13:50:23.714Z,103302.66
2019-02-14T13:52:51.128Z,103313.66
2019-02-14T13:55:18.177Z,103301.36
2019-02-14T13:57:47.460Z,103311.15
2019-02-14T14:00:17.329Z,103312.23
2019-02-14T14:02:44.378Z,103303.67
2019-02-14T14:05:12.353Z,103307.75
2019-02-14T14:07:41.860Z,103310.40
2019-02-14T14:10:08.979Z,103297.09
2019-02-14T14:12:37.594Z,103304.84
2019-02-14T14:15:05.304Z,103302.30
2019-02-14T14:17:32.856Z,103306.98
2019-02-14T14:20:00.808Z,103294.88
2019-02-14T14:22:28.275Z,103296.98
2019-02-14T14:24:55.390Z,103309.23
2019-02-14T14:27:22.510Z,103298.28
2019-02-14T14:29:49.632Z,103298.28
2019-02-14T14:32:16.714Z,103308.30
2019-02-14T14:34:44.389Z,103307.30
2019-02-14T14:37:12.153Z,103306.82
2019-02-14T14:39:46.031Z,103312.34
2019-02-14T14:42:12.223Z,103310.35
2019-02-14T14:44:48.523Z,103318.81
2019-02-14T14:47:18.137Z,103312.69
2019-02-14T14:49:45.600Z,103314.88
2019-02-14T14:52:13.385Z,103311.48
2019-02-14T14:54:41.762Z,103318.42
2019-02-14T14:57:09.636Z,103321.64
2019-02-14T14:59:37.160Z,103319.64
2019-02-14T15:02:04.623Z,103319.64
2019-02-14T15:04:31.742Z,103313.38
2019-02-14T15:06:58.866Z,103334.87
2019-02-14T15:09:26.262Z,103328.30
2019-02-14T15:11:53.338Z,103328.30
2019-02-14T15:14:20.439Z,103318.33
2019-02-14T15:16:47.586Z,103310.49
2019-02-14T15:19:15.714Z,103310.49
2019-02-14T15:21:42.803Z,103322.22
2019-02-14T15:24:09.973Z,103320.59
2019-02-14T15:26:38.250Z,103320.32
2019-02-14T15:29:05.378Z,103317.43
2019-02-14T15:31:32.551Z,103310.89
2019-02-14T15:33:59.919Z,103321.98
2019-02-14T15:36:29.068Z,103321.98
2019-02-14T15:38:56.751Z,103328.21
2019-02-14T15:41:23.836Z,103328.21
2019-02-14T15:43:51.311Z,103337.81
2019-02-14T15:46:20.228Z,103331.98
2019-02-14T15:48:47.971Z,103331.98
2019-02-14T15:51:17.824Z,103329.16
2019-02-14T15:53:46.240Z,103333.02
2019-02-14T15:56:13.555Z,103335.48
2019-02-14T15:58:41.476Z,103328.84
2019-02-14T16:01:10.559Z,103330.31
2019-02-14T16:03:40.134Z,103317.91
2019-02-14T16:06:08.242Z,103327.52
2019-02-14T16:08:36.016Z,103328.19
2019-02-14T16:11:03.367Z,103342.02
2019-02-14T16:13:33.527Z,103325.80
2019-02-14T16:16:01.863Z,103330.66
2019-02-14T16:18:29.876Z,103331.17
2019-02-14T16:20:57.075Z,103333.72
2019-02-14T16:23:24.469Z,103338.18
2019-02-14T16:25:54.059Z,103340.98
2019-02-14T16:28:22.944Z,103346.14
2019-02-14T16:30:50.003Z,103349.19
2019-02-14T16:33:17.755Z,103343.52
2019-02-14T16:35:45.216Z,103345.41
2019-02-14T16:38:13.931Z,103343.56
2019-02-14T16:40:42.498Z,103355.87
2019-02-14T16:43:09.994Z,103343.45
2019-02-14T16:45:37.698Z,103344.28
2019-02-14T16:48:05.045Z,103339.46
2019-02-14T16:50:32.815Z,103344.76
2019-02-14T16:52:59.866Z,103353.50
2019-02-14T16:55:27.123Z,103347.58
2019-02-14T16:57:56.455Z,103345.56
2019-02-14T17:00:23.554Z,103345.19
2019-02-14T17:02:50.653Z,103346.37
2019-02-14T17:05:17.764Z,103353.30
2019-02-14T17:07:44.861Z,103356.97
2019-02-14T17:10:12.355Z,103347.05
2019-02-14T17:12:39.971Z,103351.66
2019-02-14T17:15:08.192Z,103349.17
2019-02-14T17:17:35.328Z,103347.30
2019-02-14T17:20:02.602Z,103343.50
2019-02-14T17:22:30.091Z,103351.38
2019-02-14T17:24:57.546Z,103350.19
2019-02-14T17:27:25.298Z,103354.34
2019-02-14T17:29:52.474Z,103345.48
2019-02-14T17:32:19.554Z,103349.45
2019-02-14T17:34:47.184Z,103342.42
2019-02-14T17:37:16.236Z,103352.85
2019-02-14T17:39:44.187Z,103350.12
2019-02-14T17:42:11.305Z,103350.40
2019-02-14T17:44:38.739Z,103346.31
2019-02-14T17:47:06.210Z,103342.80
2019-02-14T17:49:34.488Z,103354.47
2019-02-14T17:52:01.910Z,103346.89
2019-02-14T17:54:29.370Z,103356.38
2019-02-14T17:56:57.117Z,103363.10
2019-02-14T17:59:25.199Z,103359.71
2019-02-14T18:01:52.852Z,103348.41
2019-02-14T18:04:19.911Z,103351.73
2019-02-14T18:06:46.998Z,103358.28
2019-02-14T18:09:14.180Z,103359.86
2019-02-14T18:11:41.548Z,103361.17
2019-02-14T18:14:08.661Z,103363.84
2019-02-14T18:16:35.731Z,103365.02
2019-02-14T18:19:06.051Z,103364.16
2019-02-14T18:21:33.189Z,103367.58
2019-02-14T18:24:00.914Z,103366.53
2019-02-14T18:26:30.085Z,103372.73
2019-02-14T18:28:57.163Z,103366.92
2019-02-14T18:31:24.267Z,103378.36
2019-02-14T18:33:51.370Z,103378.32
2019-02-14T18:36:20.935Z,103373.95
2019-02-14T18:38:49.218Z,103375.80
2019-02-14T18:41:17.315Z,103373.50
2019-02-14T18:43:44.412Z,103371.55
2019-02-14T18:46:12.477Z,103380.00
2019-02-14T18:48:40.687Z,103378.71
2019-02-14T18:51:08.189Z,103379.06
2019-02-14T18:53:35.294Z,103370.45
2019-02-14T18:56:03.043Z,103365.78
2019-02-14T18:58:30.518Z,103363.98
2019-02-14T19:00:59.402Z,103372.41
2019-02-14T19:03:26.480Z,103363.49
2019-02-14T19:05:54.649Z,103359.22
2019-02-14T19:08:22.791Z,103364.03
2019-02-14T19:10:51.575Z,103361.94
2019-02-14T19:13:19.738Z,103364.44
2019-02-14T19:15:47.335Z,103364.72
2019-02-14T19:18:14.626Z,103355.35
2019-02-14T19:20:41.699Z,103358.33
2019-02-14T19:23:08.767Z,103349.33
2019-02-14T19:25:36.314Z,103351.89
2019-02-14T19:28:03.440Z,103353.66
2019-02-14T19:30:30.485Z,103349.54
2019-02-14T19:32:57.928Z,103348.54
2019-02-14T19:35:24.986Z,103359.11
2019-02-14T19:37:52.078Z,103361.80
2019-02-14T19:40:20.002Z,103359.00
2019-02-14T19:42:49.131Z,103358.03
2019-02-14T19:45:16.225Z,103360.98
2019-02-14T19:47:43.811Z,103355.69
2019-02-14T19:50:10.953Z,103355.64
2019-02-14T19:52:38.046Z,103355.48
2019-02-14T19:55:07.150Z,103360.19
2019-02-14T19:57:34.519Z,103361.80
2019-02-14T20:00:01.918Z,103352.63
2019-02-14T20:02:30.534Z,103353.58
2019-02-14T20:04:58.794Z,103360.46
2019-02-14T20:07:26.316Z,103359.03
2019-02-14T20:09:53.384Z,103359.11
2019-02-14T20:12:22.603Z,103356.96
2019-02-14T20:14:49.865Z,103359.42
2019-02-14T20:17:17.371Z,103361.19
2019-02-14T20:19:46.297Z,103365.76
2019-02-14T20:22:14.431Z,103362.43
2019-02-14T20:24:41.838Z,103355.48
2019-02-14T20:27:09.282Z,103362.57
2019-02-14T20:29:37.607Z,103369.39
2019-02-14T20:32:05.710Z,103362.98
2019-02-14T20:34:32.844Z,103365.04
2019-02-14T20:37:01.765Z,103364.38
2019-02-14T20:39:29.304Z,103373.03
2019-02-14T20:41:56.722Z,103366.57
2019-02-14T20:44:24.780Z,103365.81
2019-02-14T20:46:52.523Z,103369.71
2019-02-14T20:49:19.822Z,103375.22
2019-02-14T20:51:47.057Z,103377.03
2019-02-14T20:54:14.593Z,103372.94
2019-02-14T20:56:41.766Z,103372.98
2019-02-14T20:59:09.504Z,103367.06
2019-02-14T21:01:37.892Z,103374.55
2019-02-14T21:04:06.304Z,103374.09
2019-02-14T21:06:35.520Z,103377.21
2019-02-14T21:09:04.179Z,103376.25
2019-02-14T21:11:33.253Z,103372.84
2019-02-14T21:14:00.531Z,103380.11
2019-02-14T21:16:28.083Z,103381.23
2019-02-14T21:18:55.165Z,103379.66
2019-02-14T21:21:22.291Z,103376.83
2019-02-14T21:23:50.312Z,103380.41
2019-02-14T21:26:17.680Z,103382.44
2019-02-14T21:28:44.743Z,103382.20
2019-02-14T21:31:11.787Z,103386.61
2019-02-14T21:33:39.552Z,103380.55
2019-02-14T21:36:07.592Z,103387.89
2019-02-14T21:38:36.310Z,103393.91
2019-02-14T21:41:04.262Z,103393.23
2019-02-14T21:43:32.031Z,103388.89
2019-02-14T21:45:59.468Z,103387.42
2019-02-14T21:48:26.620Z,103386.72
2019-02-14T21:50:54.125Z,103392.70
2019-02-14T21:53:23.597Z,103393.31
2019-02-14T21:55:51.513Z,103395.30
2019-02-14T21:58:19.263Z,103396.41
2019-02-14T22:00:46.814Z,103388.06
2019-02-14T22:03:16.719Z,103401.55
2019-02-14T22:05:44.984Z,103396.44
2019-02-14T22:08:12.663Z,103405.22
2019-02-14T22:10:40.182Z,103405.70
2019-02-14T22:13:07.417Z,103407.55
2019-02-14T22:15:34.562Z,103408.47
2019-02-14T22:18:02.678Z,103406.75
2019-02-14T22:20:29.854Z,103409.20
2019-02-14T22:22:56.944Z,103411.66
2019-02-14T22:25:24.721Z,103412.44
2019-02-14T22:27:53.335Z,103411.80
2019-02-14T22:30:20.419Z,103401.55
2019-02-14T22:32:48.119Z,103403.64
2019-02-14T22:35:15.232Z,103398.55
2019-02-14T22:37:42.930Z,103410.25
2019-02-14T22:40:10.167Z,103399.00
2019-02-14T22:42:46.233Z,103402.87
2019-02-14T22:45:06.852Z,103403.59
2019-02-14T22:47:34.703Z,103399.92
2019-02-14T22:50:02.166Z,103395.84
2019-02-14T22:52:31.074Z,103392.23
2019-02-14T22:54:59.118Z,103383.20
2019-02-14T22:57:26.889Z,103390.56
2019-02-14T22:59:55.161Z,103389.03
2019-02-14T23:02:22.359Z,103385.14
2019-02-14T23:04:50.108Z,103386.70
2019-02-14T23:07:18.963Z,103379.59
2019-02-14T23:09:47.031Z,103382.14
2019-02-14T23:12:14.515Z,103379.13
2019-02-14T23:14:42.167Z,103381.02
2019-02-14T23:17:09.832Z,103384.55
2019-02-14T23:19:37.578Z,103386.30
2019-02-14T23:22:05.386Z,103386.78
2019-02-14T23:24:32.788Z,103385.41
2019-02-14T23:27:00.563Z,103390.97
2019-02-14T23:29:27.630Z,103395.24
2019-02-14T23:31:54.987Z,103400.41
2019-02-14T23:34:22.141Z,103395.56
2019-02-14T23:36:49.410Z,103402.36
2019-02-14T23:39:16.607Z,103401.58
2019-02-14T23:41:44.993Z,103401.27
2019-02-14T23:44:12.056Z,103403.05
2019-02-14T23:46:39.454Z,103397.52
2019-02-14T23:49:07.262Z,103400.96
2019-02-14T23:51:34.338Z,103397.72
2019-02-14T23:54:01.751Z,103399.08
2019-02-14T23:56:29.177Z,103392.59
2019-02-14T23:58:56.581Z,103389.58
